Time;durP1;ratioP1;P1;durP2;ratioP2;P2;SDS_P1;SDS_P2;PMS_P1;PMS_P2;Temp;Humidity;BMP_temperature;BMP_pressure;BME280_temperature;BME280_humidity;BME280_pressure;Samples;Min_cycle;Max_cycle;Signal;HPM_P1;HPM_P2
2023/12/03 00:01:10;;;;;;;3.75;2.28;;;15.80;79.00;;;;;;10567212;27;20054;-61
2023/12/03 00:06:12;;;;;;;4.07;2.20;;;15.80;79.00;;;;;;10568278;27;20113;-60
2023/12/03 00:11:16;;;;;;;6.88;2.60;;;15.80;79.00;;;;;;10560572;27;20085;-61
2023/12/03 00:16:18;;;;;;;3.78;1.90;;;15.80;78.80;;;;;;10554701;27;20193;-62
2023/12/03 00:21:20;;;;;;;3.95;2.00;;;15.80;78.80;;;;;;10560558;28;20138;-59
2023/12/03 00:26:23;;;;;;;4.13;2.23;;;15.80;78.80;;;;;;10566615;28;20440;-61
2023/12/03 00:31:25;;;;;;;2.97;2.35;;;15.70;78.70;;;;;;10570291;27;20047;-62
2023/12/03 00:36:27;;;;;;;4.43;2.53;;;15.70;78.60;;;;;;10582305;27;20067;-59
2023/12/03 00:41:30;;;;;;;2.40;1.90;;;15.70;78.60;;;;;;10588235;27;20054;-58
2023/12/03 00:46:32;;;;;;;5.63;2.80;;;15.70;78.60;;;;;;10572668;27;20131;-60
2023/12/03 00:51:34;;;;;;;4.83;2.60;;;15.70;78.60;;;;;;10574076;27;20052;-61
2023/12/03 00:56:37;;;;;;;4.17;2.30;;;15.70;78.50;;;;;;10571413;27;20051;-61
2023/12/03 01:01:39;;;;;;;5.45;2.47;;;15.70;78.50;;;;;;10571818;27;20429;-61
2023/12/03 01:06:41;;;;;;;3.63;2.33;;;15.60;78.40;;;;;;10576824;27;20051;-59
2023/12/03 01:11:45;;;;;;;3.20;2.30;;;15.60;78.30;;;;;;10570420;27;20063;-60
2023/12/03 01:16:47;;;;;;;4.85;2.85;;;15.60;78.30;;;;;;10568739;27;20094;-60
2023/12/03 01:21:48;;;;;;;7.60;2.33;;;15.60;78.80;;;;;;10571136;27;20859;-60
2023/12/03 01:26:52;;;;;;;4.10;2.30;;;15.60;78.30;;;;;;10573446;27;20148;-61
2023/12/03 01:31:54;;;;;;;3.15;2.33;;;15.60;78.20;;;;;;10574893;27;20059;-59
2023/12/03 01:36:55;;;;;;;3.28;1.92;;;15.60;78.20;;;;;;10564964;27;20050;-61
2023/12/03 01:41:59;;;;;;;2.73;2.47;;;15.60;78.20;;;;;;10567372;27;20051;-60
2023/12/03 01:47:03;;;;;;;3.50;2.25;;;15.50;78.10;;;;;;10566039;27;20043;-60
2023/12/03 01:52:05;;;;;;;3.45;2.40;;;15.50;78.10;;;;;;10563091;27;20048;-60
2023/12/03 01:57:09;;;;;;;4.17;2.53;;;15.60;78.10;;;;;;10559380;27;20140;-61
2023/12/03 02:02:11;;;;;;;3.35;2.13;;;15.60;78.10;;;;;;10557931;27;20485;-60
2023/12/03 02:07:13;;;;;;;4.27;2.13;;;15.50;77.90;;;;;;10564891;27;20039;-61
2023/12/03 02:12:16;;;;;;;2.80;2.17;;;15.50;78.00;;;;;;10564870;27;20062;-60
2023/12/03 02:17:18;;;;;;;5.63;2.45;;;15.50;78.00;;;;;;10549697;27;20051;-59
2023/12/03 02:22:20;;;;;;;4.77;1.97;;;15.50;77.90;;;;;;10552494;27;20062;-62
2023/12/03 02:27:23;;;;;;;3.10;1.77;;;15.50;77.90;;;;;;10559688;27;20084;-60
2023/12/03 02:32:25;;;;;;;2.33;1.70;;;15.50;77.90;;;;;;10561372;27;20048;-61
2023/12/03 02:37:27;;;;;;;3.37;1.70;;;15.50;77.90;;;;;;10563943;27;20043;-60
2023/12/03 02:42:30;;;;;;;2.73;1.93;;;15.40;77.80;;;;;;10569571;27;20051;-64
2023/12/03 02:47:32;;;;;;;3.55;1.80;;;15.40;77.60;;;;;;10568133;27;20051;-61
2023/12/03 02:52:34;;;;;;;2.30;1.90;;;15.40;77.70;;;;;;10565746;27;20043;-60
2023/12/03 02:57:37;;;;;;;3.80;2.50;;;15.50;77.70;;;;;;10567901;27;20050;-61
2023/12/03 03:02:39;;;;;;;3.03;1.90;;;15.50;77.60;;;;;;10568911;27;20055;-60
2023/12/03 03:07:41;;;;;;;3.30;1.60;;;15.40;77.60;;;;;;10561683;27;20820;-61
2023/12/03 03:12:44;;;;;;;2.83;1.70;;;15.40;77.50;;;;;;10569278;27;20155;-61
2023/12/03 03:17:46;;;;;;;4.50;2.10;;;15.40;78.00;;;;;;10566627;27;20090;-61
2023/12/03 03:22:48;;;;;;;2.60;1.83;;;15.40;78.00;;;;;;10561987;27;20044;-59
2023/12/03 03:27:51;;;;;;;2.23;1.60;;;15.40;77.40;;;;;;10569872;27;20110;-62
2023/12/03 03:32:53;;;;;;;2.15;1.45;;;15.40;77.40;;;;;;10565243;27;20051;-60
2023/12/03 03:37:55;;;;;;;3.57;2.50;;;15.40;77.40;;;;;;10569620;27;20843;-61
2023/12/03 03:42:58;;;;;;;5.63;3.97;;;15.40;77.10;;;;;;10566360;27;20055;-59
2023/12/03 03:48:00;;;;;;;2.78;1.73;;;15.10;77.00;;;;;;10565640;27;20144;-60
2023/12/03 03:53:02;;;;;;;2.22;1.70;;;15.20;77.50;;;;;;10559462;27;20053;-60
2023/12/03 04:15:32;;;;;;;2.92;1.88;;;15.30;76.60;;;;;;10534115;27;20134;-59
2023/12/03 04:20:34;;;;;;;3.20;1.88;;;15.30;77.10;;;;;;10557913;28;20131;-57
2023/12/03 04:25:36;;;;;;;2.33;1.27;;;15.30;77.10;;;;;;10553098;28;20798;-59
2023/12/03 04:30:39;;;;;;;1.87;1.60;;;15.30;77.00;;;;;;10560091;28;20051;-59
2023/12/03 04:35:41;;;;;;;1.73;1.40;;;15.30;77.00;;;;;;10544517;28;20048;-61
2023/12/03 04:40:43;;;;;;;2.08;1.40;;;15.30;76.90;;;;;;10555067;28;20075;-60
2023/12/03 04:45:46;;;;;;;1.87;1.43;;;15.30;76.90;;;;;;10550649;28;20051;-59
2023/12/03 04:50:48;;;;;;;1.83;1.50;;;15.30;76.80;;;;;;10560318;28;20058;-60
2023/12/03 04:55:53;;;;;;;2.77;1.63;;;15.30;76.80;;;;;;10555347;28;20051;-56
2023/12/03 05:00:56;;;;;;;1.58;1.45;;;15.30;76.70;;;;;;10550733;28;20056;-60
2023/12/03 05:05:58;;;;;;;2.58;1.58;;;15.30;76.60;;;;;;10552852;28;20054;-61
2023/12/03 05:11:04;;;;;;;1.70;1.17;;;15.30;76.60;;;;;;10555295;28;20051;-59
2023/12/03 05:16:08;;;;;;;2.20;1.75;;;15.30;76.50;;;;;;10548102;28;20160;-58
2023/12/03 05:21:10;;;;;;;2.22;1.52;;;15.30;76.50;;;;;;10546735;28;20503;-58
2023/12/03 05:26:12;;;;;;;1.77;1.43;;;15.30;76.50;;;;;;10528546;28;20525;-58
2023/12/03 05:31:15;;;;;;;1.97;1.50;;;15.20;76.50;;;;;;10525574;28;21067;-59
2023/12/03 05:36:22;;;;;;;1.98;1.60;;;15.30;76.40;;;;;;10522409;28;20518;-60
2023/12/03 05:41:24;;;;;;;1.70;1.30;;;15.20;76.50;;;;;;10520416;28;20059;-59
2023/12/03 05:46:28;;;;;;;1.63;1.30;;;15.20;76.50;;;;;;10523490;28;20414;-59
2023/12/03 05:51:29;;;;;;;1.75;1.40;;;15.30;76.50;;;;;;10511376;28;20060;-59
2023/12/03 05:56:31;;;;;;;2.50;1.67;;;15.30;76.50;;;;;;10520533;28;20055;-59
2023/12/03 06:01:35;;;;;;;3.13;1.60;;;15.30;76.50;;;;;;10522459;28;20739;-60
2023/12/03 06:06:37;;;;;;;1.98;1.40;;;15.30;76.60;;;;;;10521811;28;20051;-59
2023/12/03 06:11:39;;;;;;;1.48;1.20;;;15.30;76.60;;;;;;10520567;28;20056;-60
2023/12/03 06:16:42;;;;;;;1.87;1.50;;;15.30;76.80;;;;;;10521488;28;20040;-62
2023/12/03 06:21:44;;;;;;;3.05;1.58;;;15.40;76.70;;;;;;10505594;28;20048;-62
2023/12/03 06:26:47;;;;;;;4.83;3.00;;;15.40;76.90;;;;;;10515533;28;20075;-60
2023/12/03 06:31:50;;;;;;;;;;;15.40;76.90;;;;;;10523449;28;20042;-61
2023/12/03 06:36:52;;;;;;;;;;;15.40;77.00;;;;;;10512543;28;19921;-61
2023/12/03 06:41:54;;;;;;;2.58;1.85;;;15.40;77.10;;;;;;10518663;28;19979;-59
2023/12/03 06:46:57;;;;;;;2.28;2.08;;;15.50;77.20;;;;;;10517784;28;20055;-62
2023/12/03 06:51:59;;;;;;;2.70;1.90;;;15.40;77.80;;;;;;10522662;28;20058;-60
2023/12/03 06:57:01;;;;;;;3.13;1.83;;;15.40;77.30;;;;;;10510838;28;20160;-61
2023/12/03 07:02:04;;;;;;;2.27;1.87;;;15.50;77.30;;;;;;10516159;28;20062;-60
2023/12/03 07:07:06;;;;;;;2.83;2.00;;;15.50;77.20;;;;;;10513978;28;20522;-61
2023/12/03 07:12:09;;;;;;;2.70;2.07;;;15.50;77.10;;;;;;10509139;28;20052;-60
2023/12/03 07:17:12;;;;;;;3.83;2.22;;;15.40;77.20;;;;;;10506161;28;20620;-61
2023/12/03 07:22:14;;;;;;;4.75;1.98;;;15.40;77.20;;;;;;10515791;28;20040;-60
2023/12/03 07:27:18;;;;;;;2.33;1.93;;;15.40;77.10;;;;;;10508480;28;20048;-61
2023/12/03 07:32:21;;;;;;;3.00;2.22;;;15.40;77.60;;;;;;10507134;28;20900;-61
2023/12/03 07:37:23;;;;;;;4.35;1.60;;;15.40;77.10;;;;;;10506992;28;20048;-62
2023/12/03 07:42:26;;;;;;;3.60;2.00;;;15.40;77.00;;;;;;10508790;28;20051;-61
2023/12/03 07:47:29;;;;;;;;;;;15.40;77.10;;;;;;10511669;28;20116;-59
2023/12/03 07:52:31;;;;;;;9.57;5.00;;;15.40;76.90;;;;;;10500714;28;20814;-60
2023/12/03 07:57:33;;;;;;;3.72;2.58;;;15.40;76.80;;;;;;10503568;28;20735;-59
2023/12/03 08:02:36;;;;;;;2.70;1.93;;;15.30;77.00;;;;;;10499885;28;20599;-60
2023/12/03 08:07:38;;;;;;;4.95;2.53;;;15.40;77.00;;;;;;10488610;28;20056;-61
2023/12/03 08:12:40;;;;;;;6.63;3.10;;;15.40;77.10;;;;;;10500719;28;20799;-61
2023/12/03 08:17:43;;;;;;;4.67;2.67;;;15.40;77.20;;;;;;10498491;28;20055;-67
2023/12/03 08:22:45;;;;;;;3.30;2.53;;;15.50;77.20;;;;;;10502113;28;20066;-62
2023/12/03 08:27:47;;;;;;;3.88;2.22;;;15.50;77.20;;;;;;10504625;28;20852;-60
2023/12/03 08:32:50;;;;;;;4.63;2.10;;;15.40;77.20;;;;;;10495887;28;20519;-61
2023/12/03 08:37:52;;;;;;;5.68;2.20;;;15.50;77.30;;;;;;10501527;28;20069;-60
2023/12/03 08:42:54;;;;;;;2.70;2.00;;;15.50;77.30;;;;;;10510599;28;20071;-60
2023/12/03 08:47:57;;;;;;;4.60;1.80;;;15.50;77.30;;;;;;10495077;28;20320;-61
2023/12/03 08:53:00;;;;;;;3.63;2.20;;;15.60;77.30;;;;;;10499085;28;20078;-60
2023/12/03 08:58:02;;;;;;;4.30;2.30;;;15.60;77.40;;;;;;10495331;28;20521;-61
2023/12/03 09:03:05;;;;;;;;;;;15.60;77.50;;;;;;10508949;28;20055;-58
2023/12/03 09:08:07;;;;;;;;;;;15.60;77.30;;;;;;10511308;28;20448;-60
2023/12/03 09:13:09;;;;;;;4.45;2.45;;;15.60;77.50;;;;;;10510235;28;19939;-61
2023/12/03 09:18:12;;;;;;;4.03;1.95;;;15.60;77.30;;;;;;10509845;28;20051;-63
2023/12/03 09:23:14;;;;;;;4.82;2.35;;;15.60;77.60;;;;;;10508960;28;20177;-61
2023/12/03 09:28:16;;;;;;;5.50;2.30;;;15.60;77.40;;;;;;10513176;28;20056;-61
2023/12/03 09:33:19;;;;;;;3.27;2.13;;;15.60;77.70;;;;;;10511090;28;20035;-62
2023/12/03 09:38:22;;;;;;;5.07;3.10;;;15.70;77.80;;;;;;10504047;28;20090;-61
2023/12/03 09:43:28;;;;;;;5.07;2.78;;;15.60;77.40;;;;;;10503310;28;20426;-63
2023/12/03 09:48:34;;;;;;;8.80;2.60;;;15.60;77.30;;;;;;10508000;28;20063;-60
2023/12/03 09:53:37;;;;;;;4.95;2.28;;;15.50;77.50;;;;;;10504606;28;20055;-61
2023/12/03 09:58:39;;;;;;;7.95;3.65;;;15.40;77.20;;;;;;10503676;28;20056;-60
2023/12/03 10:03:43;;;;;;;3.35;2.33;;;15.40;77.00;;;;;;10495889;28;20063;-60
2023/12/03 10:08:46;;;;;;;11.43;3.80;;;15.40;77.10;;;;;;10495440;28;20062;-62
2023/12/03 10:13:50;;;;;;;6.25;3.70;;;15.30;76.80;;;;;;10495247;28;20047;-61
2023/12/03 10:18:53;;;;;;;5.53;3.38;;;15.30;77.10;;;;;;10492157;28;20345;-61
2023/12/03 10:24:00;;;;;;;7.72;3.25;;;15.30;77.10;;;;;;10495917;28;20113;-61
2023/12/03 10:29:02;;;;;;;13.43;6.32;;;15.30;76.90;;;;;;10490967;28;20080;-57
2023/12/03 10:34:05;;;;;;;5.67;2.93;;;15.30;76.20;;;;;;10511540;28;20415;-62
2023/12/03 10:39:08;;;;;;;7.90;3.67;;;15.20;76.50;;;;;;10510040;28;20051;-59
2023/12/03 10:44:14;;;;;;;;;;;15.20;77.30;;;;;;10511280;28;20774;-59
2023/12/03 10:49:18;;;;;;;7.88;2.65;;;15.40;77.90;;;;;;10504421;28;19923;-59
2023/12/03 10:54:20;;;;;;;8.32;2.17;;;15.40;78.30;;;;;;10498219;28;20478;-59
2023/12/03 10:59:27;;;;;;;9.27;4.20;;;15.50;78.40;;;;;;10503254;28;20658;-61
2023/12/03 11:04:36;;;;;;;11.52;4.00;;;15.50;78.70;;;;;;10493236;28;20482;-61
2023/12/03 11:09:40;;;;;;;4.60;2.05;;;15.60;78.40;;;;;;10512530;28;20134;-60
2023/12/03 11:14:43;;;;;;;6.35;2.75;;;15.60;78.40;;;;;;10493931;28;20060;-59
2023/12/03 11:19:51;;;;;;;8.52;4.70;;;15.60;79.40;;;;;;10495739;28;20095;-61
2023/12/03 11:25:01;;;;;;;13.35;6.10;;;15.70;77.70;;;;;;10502150;28;20052;-59
2023/12/03 11:30:04;;;;;;;9.07;5.07;;;15.60;77.90;;;;;;10500684;28;20559;-59
2023/12/03 11:35:13;;;;;;;7.90;3.65;;;15.60;77.90;;;;;;10503661;28;20474;-60
2023/12/03 11:40:16;;;;;;;6.40;2.95;;;15.70;78.40;;;;;;10501770;28;20048;-60
2023/12/03 11:45:20;;;;;;;7.63;3.42;;;15.70;78.70;;;;;;10501781;28;20043;-60
2023/12/03 11:50:23;;;;;;;10.13;5.93;;;15.60;78.50;;;;;;10496008;28;20496;-59
2023/12/03 11:55:27;;;;;;;6.07;2.45;;;15.70;78.00;;;;;;10494960;28;20052;-59
2023/12/03 12:00:29;;;;;;;5.50;2.45;;;15.60;78.30;;;;;;10497614;28;20059;-59
2023/12/03 12:05:32;;;;;;;8.20;4.83;;;15.60;78.50;;;;;;10493535;28;20096;-59
2023/12/03 12:10:35;;;;;;;9.10;5.15;;;15.60;78.40;;;;;;10497085;28;20091;-60
2023/12/03 12:15:37;;;;;;;7.75;2.85;;;15.70;78.20;;;;;;10504719;28;20063;-60
2023/12/03 12:20:42;;;;;;;9.32;3.90;;;15.60;78.50;;;;;;10497943;28;20040;-61
2023/12/03 12:25:44;;;;;;;5.70;2.15;;;15.70;78.40;;;;;;10511817;28;20044;-58
2023/12/03 12:30:47;;;;;;;5.23;3.10;;;15.60;78.40;;;;;;10494566;28;20065;-60
2023/12/03 12:35:51;;;;;;;3.97;2.30;;;15.60;78.80;;;;;;10503263;28;20488;-60
2023/12/03 12:40:58;;;;;;;6.75;2.50;;;15.60;78.50;;;;;;10503661;28;20477;-57
2023/12/03 12:46:07;;;;;;;7.03;2.92;;;15.60;78.50;;;;;;10513514;28;20783;-58
2023/12/03 12:51:23;;;;;;;5.57;3.15;;;15.50;78.50;;;;;;10499818;28;20055;-58
2023/12/03 12:56:25;;;;;;;4.90;2.17;;;15.60;78.50;;;;;;10514210;28;21014;-59
2023/12/03 13:01:28;;;;;;;3.20;1.63;;;15.50;78.40;;;;;;10505683;28;20051;-59
2023/12/03 13:06:32;;;;;;;6.13;3.15;;;15.50;78.20;;;;;;10514694;28;20047;-59
2023/12/03 13:11:33;;;;;;;7.47;3.97;;;15.50;77.90;;;;;;10516821;28;20095;-58
2023/12/03 13:16:35;;;;;;;3.43;2.07;;;15.50;78.30;;;;;;10507753;28;20282;-57
2023/12/03 13:21:39;;;;;;;7.63;3.53;;;15.50;78.30;;;;;;10507658;28;20107;-59
2023/12/03 13:26:41;;;;;;;4.07;2.90;;;15.50;78.20;;;;;;10510552;28;20132;-59
2023/12/03 13:31:42;;;;;;;6.07;2.47;;;15.50;78.40;;;;;;10511930;28;20561;-61
2023/12/03 13:36:46;;;;;;;6.80;3.03;;;15.50;78.20;;;;;;10504503;28;20080;-58
2023/12/03 13:41:47;;;;;;;5.53;2.78;;;15.50;78.20;;;;;;10507382;28;20456;-58
2023/12/03 13:46:56;;;;;;;15.27;3.30;;;15.40;78.20;;;;;;10516502;28;20047;-58
2023/12/03 13:52:00;;;;;;;3.97;2.47;;;15.40;78.00;;;;;;10499148;28;20059;-59
2023/12/03 13:57:02;;;;;;;8.23;2.63;;;15.40;78.40;;;;;;10507012;28;20047;-60
2023/12/03 14:02:05;;;;;;;6.00;2.03;;;15.40;78.30;;;;;;10504670;28;20138;-59
2023/12/03 14:07:08;;;;;;;7.43;2.58;;;15.50;78.30;;;;;;10513931;28;20044;-59
2023/12/03 14:12:10;;;;;;;5.85;2.55;;;15.50;78.40;;;;;;10506439;28;20108;-59
2023/12/03 14:17:13;;;;;;;6.60;3.00;;;15.50;78.40;;;;;;10515564;28;20047;-58
2023/12/03 14:22:17;;;;;;;;;;;15.50;78.40;;;;;;10500944;28;20055;-58
2023/12/03 14:27:18;;;;;;;4.63;2.50;;;15.50;78.50;;;;;;10508454;28;19924;-55
2023/12/03 14:32:21;;;;;;;5.37;2.50;;;15.50;78.10;;;;;;10501994;28;20047;-59
2023/12/03 14:37:24;;;;;;;7.75;2.58;;;15.40;78.60;;;;;;10502712;28;20047;-61
2023/12/03 14:42:26;;;;;;;4.07;2.78;;;15.50;78.90;;;;;;10509123;28;20059;-62
2023/12/03 14:47:28;;;;;;;5.93;3.17;;;15.40;78.90;;;;;;10500481;28;20052;-58
2023/12/03 14:52:31;;;;;;;7.95;2.33;;;15.50;79.00;;;;;;10507108;28;20137;-59
2023/12/03 14:57:33;;;;;;;6.38;2.85;;;15.50;78.90;;;;;;10497498;28;20056;-59
2023/12/03 15:02:35;;;;;;;4.43;2.23;;;15.50;79.10;;;;;;10497648;28;20044;-58
2023/12/03 15:07:38;;;;;;;3.20;2.05;;;15.50;79.10;;;;;;10503337;28;20074;-59
2023/12/03 15:12:40;;;;;;;4.05;2.10;;;15.50;79.20;;;;;;10505865;28;20569;-64
2023/12/03 15:17:42;;;;;;;4.40;2.47;;;15.50;79.50;;;;;;10503726;28;20071;-59
2023/12/03 15:22:46;;;;;;;3.63;1.80;;;15.50;78.90;;;;;;10506067;28;20129;-62
2023/12/03 15:27:47;;;;;;;9.07;3.28;;;15.50;79.30;;;;;;10499275;28;20156;-62
2023/12/03 15:32:49;;;;;;;4.97;2.30;;;15.50;79.20;;;;;;10504733;28;20584;-60
2023/12/03 15:37:53;;;;;;;3.10;2.03;;;15.50;79.40;;;;;;10497452;28;20052;-60
2023/12/03 15:42:55;;;;;;;18.00;6.15;;;15.50;79.90;;;;;;10507048;28;20048;-62
2023/12/03 15:47:57;;;;;;;12.13;5.13;;;15.50;80.30;;;;;;10505321;28;20043;-63
2023/12/03 15:53:00;;;;;;;14.47;5.37;;;15.60;80.50;;;;;;10508672;28;20047;-61
2023/12/03 15:58:02;;;;;;;20.83;7.13;;;15.60;80.50;;;;;;10502194;28;20055;-60
2023/12/03 16:03:04;;;;;;;12.83;5.13;;;15.60;80.90;;;;;;10503771;28;20056;-63
2023/12/03 16:08:08;;;;;;;9.35;4.60;;;15.60;80.60;;;;;;10503732;28;20851;-62
2023/12/03 16:13:09;;;;;;;17.05;6.10;;;15.60;80.70;;;;;;10505599;28;20631;-60
2023/12/03 16:18:11;;;;;;;10.30;5.43;;;15.60;80.50;;;;;;10502821;28;20043;-60
2023/12/03 16:23:15;;;;;;;12.07;4.30;;;15.60;80.90;;;;;;10505178;28;20056;-62
2023/12/03 16:28:16;;;;;;;16.88;4.32;;;15.70;81.00;;;;;;10501401;28;20061;-62
2023/12/03 16:33:18;;;;;;;12.23;4.60;;;15.70;80.80;;;;;;10507240;28;20199;-61
2023/12/03 16:38:22;;;;;;;11.77;4.73;;;15.60;80.80;;;;;;10513157;28;20055;-61
2023/12/03 16:43:24;;;;;;;11.05;5.22;;;15.60;80.60;;;;;;10501416;28;20674;-64
2023/12/03 16:48:26;;;;;;;11.40;4.07;;;15.60;80.70;;;;;;10499076;28;20063;-60
2023/12/03 16:53:29;;;;;;;10.50;4.93;;;15.60;80.50;;;;;;10497770;28;20495;-62
2023/12/03 16:58:31;;;;;;;8.43;3.28;;;15.60;80.50;;;;;;10504383;28;20047;-62
2023/12/03 17:03:33;;;;;;;10.20;4.32;;;15.60;80.40;;;;;;10505408;28;20192;-63
2023/12/03 17:08:38;;;;;;;8.33;4.57;;;15.60;80.30;;;;;;10505488;28;20102;-60
2023/12/03 17:13:40;;;;;;;7.80;4.63;;;15.60;80.30;;;;;;10506822;28;20086;-63
2023/12/03 17:18:43;;;;;;;14.30;6.93;;;15.60;80.40;;;;;;10500586;28;20054;-63
2023/12/03 17:23:47;;;;;;;11.20;5.63;;;15.60;80.10;;;;;;10507952;28;20082;-61
2023/12/03 17:28:49;;;;;;;14.18;8.13;;;15.50;79.80;;;;;;10513203;28;20082;-61
2023/12/03 17:33:51;;;;;;;16.97;6.67;;;15.40;79.10;;;;;;10512750;28;20140;-60
2023/12/03 17:38:54;;;;;;;13.73;5.95;;;15.30;79.40;;;;;;10508451;28;20049;-61
2023/12/03 17:43:56;;;;;;;12.68;5.63;;;15.30;79.40;;;;;;10515817;28;20043;-60
2023/12/03 17:48:58;;;;;;;8.87;4.03;;;15.30;79.40;;;;;;10508308;28;20056;-62
2023/12/03 17:54:02;;;;;;;11.03;4.73;;;15.30;78.90;;;;;;10502325;28;20043;-61
2023/12/03 17:59:04;;;;;;;14.38;7.55;;;15.20;79.00;;;;;;10507109;28;20048;-60
2023/12/03 18:04:08;;;;;;;17.20;7.83;;;15.10;78.80;;;;;;10507555;28;20211;-61
2023/12/03 18:09:11;;;;;;;16.38;7.32;;;15.10;78.60;;;;;;10512515;28;20091;-62
2023/12/03 18:14:13;;;;;;;18.38;8.32;;;15.10;78.70;;;;;;10505375;28;20542;-61
2023/12/03 18:19:17;;;;;;;18.52;8.85;;;15.10;78.40;;;;;;10515646;28;20458;-61
2023/12/03 18:24:21;;;;;;;14.70;7.68;;;15.10;78.30;;;;;;10510255;28;20102;-62
2023/12/03 18:29:23;;;;;;;15.98;7.03;;;15.00;78.00;;;;;;10514915;28;20206;-62
2023/12/03 18:34:26;;;;;;;15.43;8.18;;;14.90;78.30;;;;;;10513195;28;20489;-62
2023/12/03 18:39:30;;;;;;;;;;;14.90;78.00;;;;;;10512645;28;20039;-62
2023/12/03 18:44:32;;;;;;;13.45;6.43;;;15.00;78.50;;;;;;10502012;28;20365;-62
2023/12/03 18:49:34;;;;;;;11.25;6.05;;;15.00;78.60;;;;;;10509183;28;20051;-61
2023/12/03 18:54:40;;;;;;;13.00;6.97;;;15.10;78.70;;;;;;10506221;28;20903;-61
2023/12/03 18:59:43;;;;;;;16.38;7.78;;;15.00;78.30;;;;;;10515922;28;20471;-63
2023/12/03 19:04:45;;;;;;;15.45;6.85;;;15.00;78.30;;;;;;10517536;28;20120;-62
2023/12/03 19:09:48;;;;;;;17.27;7.93;;;15.00;78.40;;;;;;10519211;28;20059;-62
2023/12/03 19:14:50;;;;;;;13.27;7.47;;;15.10;78.40;;;;;;10521491;28;20047;-62
2023/12/03 19:19:52;;;;;;;13.27;7.00;;;15.00;78.50;;;;;;10515403;28;20059;-61
2023/12/03 19:24:55;;;;;;;14.45;6.47;;;15.00;78.50;;;;;;10517201;28;20059;-62
2023/12/03 19:29:58;;;;;;;15.50;7.22;;;15.00;78.50;;;;;;10519757;28;20050;-65
2023/12/03 19:35:03;;;;;;;13.40;6.93;;;15.10;78.40;;;;;;10509789;28;20046;-64
2023/12/03 19:40:08;;;;;;;13.25;5.43;;;15.10;78.70;;;;;;10519430;28;20185;-61
2023/12/03 19:45:10;;;;;;;10.30;5.90;;;15.00;78.40;;;;;;10518223;28;20045;-60
2023/12/03 19:50:12;;;;;;;13.17;6.33;;;15.00;78.50;;;;;;10521851;28;20055;-62
2023/12/03 19:55:15;;;;;;;10.88;6.55;;;15.00;78.60;;;;;;10514738;28;20039;-62
2023/12/03 20:00:18;;;;;;;13.57;6.82;;;15.00;78.40;;;;;;10497398;28;20081;-62
2023/12/03 20:05:19;;;;;;;14.27;6.80;;;15.00;78.50;;;;;;10503150;28;20079;-61
2023/12/03 20:10:24;;;;;;;13.10;6.23;;;15.10;78.50;;;;;;10497812;28;20048;-61
2023/12/03 20:15:26;;;;;;;12.35;6.13;;;15.10;78.50;;;;;;10507941;28;20786;-61
2023/12/03 20:20:28;;;;;;;11.43;5.72;;;15.20;78.80;;;;;;10510746;28;20044;-60
2023/12/03 20:25:33;;;;;;;12.93;7.13;;;15.20;78.60;;;;;;10519517;28;20086;-60
2023/12/03 20:30:34;;;;;;;11.52;5.53;;;15.20;78.50;;;;;;10510925;28;20055;-59
2023/12/03 20:35:37;;;;;;;12.55;6.20;;;15.20;78.50;;;;;;10510493;28;20166;-61
2023/12/03 20:40:40;;;;;;;13.00;5.63;;;15.20;78.10;;;;;;10504877;28;20585;-60
2023/12/03 20:45:42;;;;;;;9.50;4.88;;;15.20;78.80;;;;;;10514130;28;20106;-61
2023/12/03 20:50:44;;;;;;;7.60;3.70;;;15.30;79.20;;;;;;10510220;28;20106;-61
2023/12/03 20:55:47;;;;;;;6.65;3.92;;;15.30;79.50;;;;;;10513747;28;20039;-61
2023/12/03 21:00:49;;;;;;;9.20;3.75;;;15.40;79.70;;;;;;10503617;28;20872;-61
2023/12/03 21:05:51;;;;;;;6.37;3.57;;;15.40;80.00;;;;;;10513241;28;20097;-60
2023/12/03 21:10:55;;;;;;;12.10;3.93;;;15.40;80.70;;;;;;10519748;28;20056;-61
2023/12/03 21:15:56;;;;;;;7.43;3.50;;;15.50;79.90;;;;;;10506889;28;20087;-61
2023/12/03 21:20:58;;;;;;;10.00;2.10;;;15.50;80.10;;;;;;10513241;28;20401;-61
2023/12/03 21:26:01;;;;;;;5.37;2.93;;;15.50;80.20;;;;;;10519838;28;20082;-61
2023/12/03 21:31:04;;;;;;;8.05;3.03;;;15.50;80.10;;;;;;10513130;28;20051;-61
2023/12/03 21:36:07;;;;;;;6.10;3.33;;;15.50;80.20;;;;;;10512855;27;20039;-61
2023/12/03 21:41:10;;;;;;;5.43;3.25;;;15.60;80.30;;;;;;10492492;28;20072;-59
2023/12/03 21:46:12;;;;;;;7.72;3.03;;;15.60;80.10;;;;;;10505172;28;20121;-60
2023/12/03 21:51:14;;;;;;;10.07;2.60;;;15.60;80.30;;;;;;10509499;28;20865;-62
2023/12/03 21:56:17;;;;;;;6.00;3.30;;;15.60;80.20;;;;;;10503914;28;20052;-59
2023/12/03 22:01:22;;;;;;;6.35;3.28;;;15.60;80.30;;;;;;10510999;28;20170;-61
2023/12/03 22:06:24;;;;;;;5.43;3.15;;;15.60;80.40;;;;;;10506776;28;20040;-60
2023/12/03 22:11:27;;;;;;;6.43;3.07;;;15.60;81.00;;;;;;10517991;28;20055;-58
2023/12/03 22:16:29;;;;;;;10.38;4.30;;;15.60;80.50;;;;;;10510405;28;20491;-61
2023/12/03 22:21:31;;;;;;;11.30;3.33;;;15.60;80.30;;;;;;10512642;28;20060;-59
2023/12/03 22:26:35;;;;;;;15.80;3.43;;;15.60;80.40;;;;;;10521055;28;20067;-66
2023/12/03 22:31:37;;;;;;;4.57;3.17;;;15.60;80.50;;;;;;10514920;28;20041;-59
2023/12/03 22:36:39;;;;;;;11.73;3.63;;;15.60;80.40;;;;;;10515835;28;20052;-59
2023/12/03 22:41:43;;;;;;;6.23;3.33;;;15.60;80.30;;;;;;10520090;28;20437;-61
2023/12/03 22:46:45;;;;;;;5.85;3.13;;;15.60;80.40;;;;;;10496355;28;20277;-60
2023/12/03 22:51:47;;;;;;;4.90;2.90;;;15.60;80.10;;;;;;10521783;28;20094;-58
2023/12/03 22:56:50;;;;;;;5.43;2.30;;;15.60;80.10;;;;;;10516122;28;20090;-60
2023/12/03 23:01:52;;;;;;;6.63;2.97;;;15.60;80.00;;;;;;10518226;28;20048;-58
2023/12/03 23:06:54;;;;;;;4.10;2.50;;;15.60;80.00;;;;;;10516271;28;20056;-59
2023/12/03 23:11:57;;;;;;;7.67;2.70;;;15.60;80.00;;;;;;10515439;28;20048;-61
2023/12/03 23:16:59;;;;;;;4.68;2.35;;;15.60;79.80;;;;;;10505094;28;20056;-60
2023/12/03 23:22:01;;;;;;;4.57;2.70;;;15.60;80.50;;;;;;10514438;28;20055;-61
2023/12/03 23:27:05;;;;;;;5.03;3.00;;;15.60;79.90;;;;;;10512542;28;20784;-61
2023/12/03 23:32:07;;;;;;;5.03;2.40;;;15.60;79.80;;;;;;10517511;28;20090;-61
2023/12/03 23:37:09;;;;;;;3.75;2.50;;;15.60;79.70;;;;;;10518072;28;20079;-59
2023/12/03 23:42:12;;;;;;;2.73;1.90;;;15.60;80.20;;;;;;10523375;28;20080;-61
2023/12/03 23:47:14;;;;;;;4.75;2.60;;;15.60;79.60;;;;;;10516088;28;20486;-60
2023/12/03 23:52:16;;;;;;;4.13;2.67;;;15.60;79.70;;;;;;10503150;28;20121;-61
2023/12/03 23:57:19;;;;;;;4.57;2.20;;;15.60;79.60;;;;;;10508791;28;20047;-60
